Time;durP1;ratioP1;P1;durP2;ratioP2;P2;SDS_P1;SDS_P2;PMS_P1;PMS_P2;Temp;Humidity;BMP_temperature;BMP_pressure;BME280_temperature;BME280_humidity;BME280_pressure;Samples;Min_cycle;Max_cycle;Signal;HPM_P1;HPM_P2
2022/05/17 00:00:05;;;;;;;0.10;0.10;;;;;;;;;;5003819;28;20809;-71
2022/05/17 00:02:39;;;;;;;0.00;0.00;;;;;;;;;;5017601;28;20216;-72
2022/05/17 00:05:08;;;;;;;0.00;0.00;;;;;;;;;;5005443;28;20220;-72
2022/05/17 00:07:36;;;;;;;0.10;0.10;;;;;;;;;;5010029;28;20659;-72
2022/05/17 00:10:04;;;;;;;0.57;0.28;;;;;;;;;;5007835;28;20232;-72
2022/05/17 00:12:29;;;;;;;0.00;0.00;;;;;;;;;;4990079;28;20222;-72
2022/05/17 00:14:59;;;;;;;0.73;0.73;;;;;;;;;;4993561;28;20296;-72
2022/05/17 00:17:27;;;;;;;0.65;0.43;;;;;;;;;;5019152;28;20568;-71
2022/05/17 00:19:55;;;;;;;0.85;0.85;;;;;;;;;;5012419;28;20602;-71
2022/05/17 00:22:24;;;;;;;0.10;0.10;;;;;;;;;;4988826;28;20235;-72
2022/05/17 00:24:52;;;;;;;0.10;0.10;;;;;;;;;;5007658;28;20685;-73
2022/05/17 00:27:18;;;;;;;0.00;0.00;;;;;;;;;;4989844;28;20234;-71
2022/05/17 00:29:45;;;;;;;0.10;0.10;;;;;;;;;;4997233;28;20594;-71
2022/05/17 00:32:13;;;;;;;0.03;0.03;;;;;;;;;;4979629;28;20685;-72
2022/05/17 00:34:46;;;;;;;0.20;0.20;;;;;;;;;;5025284;28;20224;-72
2022/05/17 00:37:13;;;;;;;0.22;0.22;;;;;;;;;;5010831;28;20290;-71
2022/05/17 00:39:38;;;;;;;0.17;0.17;;;;;;;;;;5011000;28;20239;-72
2022/05/17 00:42:04;;;;;;;0.20;0.20;;;;;;;;;;5007370;28;20755;-71
2022/05/17 00:44:45;;;;;;;0.52;0.52;;;;;;;;;;5006939;28;20216;-72
2022/05/17 00:47:27;;;;;;;0.20;0.20;;;;;;;;;;5012609;28;20236;-71
2022/05/17 00:50:17;;;;;;;0.47;0.47;;;;;;;;;;5007413;28;20235;-72
2022/05/17 00:52:50;;;;;;;0.32;0.32;;;;;;;;;;5023306;28;20232;-71
2022/05/17 00:55:21;;;;;;;0.20;0.20;;;;;;;;;;4988946;28;20216;-71
2022/05/17 00:57:49;;;;;;;0.47;0.47;;;;;;;;;;4988933;28;20224;-72
2022/05/17 01:00:19;;;;;;;0.55;0.55;;;;;;;;;;5006405;28;20223;-71
2022/05/17 01:02:49;;;;;;;0.10;0.10;;;;;;;;;;5007545;28;20216;-71
2022/05/17 01:05:17;;;;;;;0.30;0.30;;;;;;;;;;5024635;28;20227;-72
2022/05/17 01:07:46;;;;;;;0.82;0.82;;;;;;;;;;4988509;28;20231;-72
2022/05/17 01:10:11;;;;;;;0.65;0.65;;;;;;;;;;5006814;28;20433;-72
2022/05/17 01:12:37;;;;;;;0.68;0.35;;;;;;;;;;5013364;28;20346;-71
2022/05/17 01:15:06;;;;;;;0.47;0.40;;;;;;;;;;4996863;28;20888;-71
2022/05/17 01:17:33;;;;;;;0.10;0.10;;;;;;;;;;5010208;28;20228;-72
2022/05/17 01:20:03;;;;;;;2.08;0.38;;;;;;;;;;5021712;28;20239;-73
2022/05/17 01:22:30;;;;;;;0.35;0.35;;;;;;;;;;5003538;28;20220;-71
2022/05/17 01:24:56;;;;;;;0.38;0.38;;;;;;;;;;5017087;28;20224;-72
2022/05/17 01:27:30;;;;;;;0.93;0.52;;;;;;;;;;5010682;28;20229;-72
2022/05/17 01:30:03;;;;;;;0.20;0.20;;;;;;;;;;5007359;28;20679;-72
2022/05/17 01:32:32;;;;;;;0.10;0.10;;;;;;;;;;5014620;28;20306;-72
2022/05/17 01:35:03;;;;;;;0.22;0.22;;;;;;;;;;4998997;28;20224;-72
2022/05/17 01:37:29;;;;;;;0.10;0.10;;;;;;;;;;5012357;28;20227;-73
2022/05/17 01:39:54;;;;;;;0.20;0.20;;;;;;;;;;5008575;28;20228;-71
2022/05/17 01:42:22;;;;;;;0.40;0.40;;;;;;;;;;5024414;28;20315;-72
2022/05/17 01:44:47;;;;;;;1.35;0.52;;;;;;;;;;5018918;28;20223;-71
2022/05/17 01:47:14;;;;;;;1.05;1.02;;;;;;;;;;5008030;28;20234;-72
2022/05/17 01:49:41;;;;;;;1.27;0.45;;;;;;;;;;5013041;28;20264;-73
2022/05/17 01:52:07;;;;;;;1.58;0.43;;;;;;;;;;5027774;28;20690;-72
2022/05/17 01:54:33;;;;;;;0.65;0.65;;;;;;;;;;4986701;23;20230;-86
2022/05/17 01:56:58;;;;;;;0.52;0.52;;;;;;;;;;4992908;28;20248;-80
2022/05/17 01:59:24;;;;;;;1.75;0.98;;;;;;;;;;5010364;28;20237;-80
2022/05/17 02:01:49;;;;;;;1.08;0.88;;;;;;;;;;4991877;28;20292;-81
2022/05/17 02:04:15;;;;;;;0.65;0.65;;;;;;;;;;4990728;28;20239;-80
2022/05/17 02:06:42;;;;;;;0.88;0.82;;;;;;;;;;4978411;28;20281;-80
2022/05/17 02:09:08;;;;;;;1.00;1.00;;;;;;;;;;4993318;28;20245;-80
2022/05/17 02:11:34;;;;;;;0.70;0.70;;;;;;;;;;4954548;28;20226;-84
2022/05/17 02:14:04;;;;;;;1.45;0.73;;;;;;;;;;4947235;28;20234;-80
2022/05/17 02:16:33;;;;;;;0.68;0.63;;;;;;;;;;4952707;28;20245;-84
2022/05/17 02:18:59;;;;;;;0.75;0.60;;;;;;;;;;4959063;28;20312;-82
2022/05/17 02:21:24;;;;;;;1.92;1.50;;;;;;;;;;4972022;28;20277;-82
2022/05/17 02:23:52;;;;;;;1.13;1.13;;;;;;;;;;4952120;28;20290;-85
2022/05/17 02:26:21;;;;;;;0.63;0.63;;;;;;;;;;4935973;28;20571;-81
2022/05/17 02:28:46;;;;;;;0.30;0.30;;;;;;;;;;4975777;28;20252;-82
2022/05/17 02:31:13;;;;;;;1.30;1.20;;;;;;;;;;4960936;28;20696;-83
2022/05/17 02:33:38;;;;;;;0.50;0.50;;;;;;;;;;4966354;28;20268;-84
2022/05/17 02:36:04;;;;;;;1.17;1.17;;;;;;;;;;4962834;28;20874;-85
2022/05/17 02:38:30;;;;;;;1.48;1.38;;;;;;;;;;4972077;28;20230;-83
2022/05/17 02:40:58;;;;;;;1.10;0.95;;;;;;;;;;4952683;28;20231;-82
2022/05/17 02:43:23;;;;;;;1.65;1.55;;;;;;;;;;4946559;28;20232;-81
2022/05/17 02:45:51;;;;;;;1.15;0.95;;;;;;;;;;4975064;28;20226;-80
2022/05/17 02:48:16;;;;;;;1.00;1.00;;;;;;;;;;4970727;28;20325;-81
2022/05/17 02:50:42;;;;;;;1.55;1.45;;;;;;;;;;4944672;28;20267;-80
2022/05/17 02:53:07;;;;;;;1.85;1.08;;;;;;;;;;4958272;28;20237;-82
2022/05/17 02:55:33;;;;;;;0.65;0.65;;;;;;;;;;4951413;28;20309;-83
2022/05/17 02:58:01;;;;;;;0.82;0.82;;;;;;;;;;4944903;28;20376;-82
2022/05/17 03:00:26;;;;;;;0.50;0.50;;;;;;;;;;4941637;28;20217;-83
2022/05/17 03:02:54;;;;;;;0.38;0.38;;;;;;;;;;4974267;28;20249;-84
2022/05/17 03:05:22;;;;;;;0.85;0.68;;;;;;;;;;4962511;28;20940;-84
2022/05/17 03:07:50;;;;;;;1.02;1.02;;;;;;;;;;4959989;28;20218;-82
2022/05/17 03:10:17;;;;;;;0.50;0.50;;;;;;;;;;4964815;28;20226;-81
2022/05/17 03:12:43;;;;;;;0.85;0.60;;;;;;;;;;4937765;28;20312;-84
2022/05/17 03:15:09;;;;;;;2.83;1.35;;;;;;;;;;4961518;28;20519;-80
2022/05/17 03:17:37;;;;;;;1.40;1.10;;;;;;;;;;4930281;28;20235;-81
2022/05/17 03:20:02;;;;;;;1.38;1.27;;;;;;;;;;4944518;28;20229;-84
2022/05/17 03:22:28;;;;;;;0.70;0.70;;;;;;;;;;4951058;28;20847;-85
2022/05/17 03:28:41;;;;;;;0.63;0.63;;;;;;;;;;4995515;28;20237;-81
2022/05/17 03:31:12;;;;;;;1.00;0.88;;;;;;;;;;4956037;28;20225;-81
2022/05/17 03:33:38;;;;;;;1.02;0.70;;;;;;;;;;4961134;28;20237;-83
2022/05/17 03:36:04;;;;;;;2.30;1.42;;;;;;;;;;4976266;28;20230;-82
2022/05/17 03:38:36;;;;;;;0.30;0.30;;;;;;;;;;4975311;28;20225;-83
2022/05/17 03:41:03;;;;;;;1.08;0.88;;;;;;;;;;4959076;28;20598;-81
2022/05/17 03:43:29;;;;;;;0.60;0.60;;;;;;;;;;4962025;28;20224;-82
2022/05/17 03:45:57;;;;;;;2.55;1.52;;;;;;;;;;4969386;28;20578;-81
2022/05/17 03:48:26;;;;;;;0.90;0.90;;;;;;;;;;4969311;28;20224;-84
2022/05/17 03:50:52;;;;;;;1.02;1.02;;;;;;;;;;4926873;28;20711;-79
2022/05/17 03:53:18;;;;;;;2.30;1.42;;;;;;;;;;4942422;28;20233;-81
2022/05/17 03:55:43;;;;;;;0.82;0.82;;;;;;;;;;4958492;28;20238;-82
2022/05/17 03:58:13;;;;;;;0.68;0.68;;;;;;;;;;4945683;28;20224;-79
2022/05/17 04:00:39;;;;;;;1.27;1.23;;;;;;;;;;4964512;28;20228;-82
2022/05/17 04:03:04;;;;;;;1.45;1.08;;;;;;;;;;4949730;28;20230;-82
2022/05/17 04:05:30;;;;;;;0.65;0.65;;;;;;;;;;4943412;28;20280;-80
2022/05/17 04:07:56;;;;;;;1.00;1.00;;;;;;;;;;4943641;28;20237;-80
2022/05/17 04:10:22;;;;;;;1.52;1.38;;;;;;;;;;4956249;28;20241;-81
2022/05/17 04:12:47;;;;;;;0.38;0.38;;;;;;;;;;4956010;28;20283;-81
2022/05/17 04:15:15;;;;;;;1.08;1.08;;;;;;;;;;4963485;28;20321;-80
2022/05/17 04:17:40;;;;;;;1.40;1.30;;;;;;;;;;4993614;28;20287;-81
2022/05/17 04:20:08;;;;;;;1.42;1.33;;;;;;;;;;4956964;28;20226;-81
2022/05/17 04:22:33;;;;;;;1.10;1.10;;;;;;;;;;4958607;28;20411;-81
2022/05/17 04:24:59;;;;;;;1.35;1.05;;;;;;;;;;4980017;28;20270;-83
2022/05/17 04:27:25;;;;;;;1.55;0.95;;;;;;;;;;4973321;28;20302;-80
2022/05/17 04:29:50;;;;;;;0.52;0.52;;;;;;;;;;4969094;28;20225;-80
2022/05/17 04:32:16;;;;;;;0.57;0.57;;;;;;;;;;4943031;28;20222;-81
2022/05/17 04:34:45;;;;;;;1.45;1.45;;;;;;;;;;4958422;28;20237;-81
2022/05/17 04:37:10;;;;;;;0.65;0.65;;;;;;;;;;4972880;28;20229;-83
2022/05/17 04:39:36;;;;;;;1.48;1.38;;;;;;;;;;4969127;28;20283;-81
2022/05/17 04:42:02;;;;;;;1.50;1.13;;;;;;;;;;4969237;28;20796;-78
2022/05/17 04:44:27;;;;;;;2.25;0.95;;;;;;;;;;4940227;28;20225;-79
2022/05/17 04:46:53;;;;;;;1.60;1.58;;;;;;;;;;4950164;28;20232;-80
2022/05/17 04:49:21;;;;;;;1.98;1.40;;;;;;;;;;4962823;28;20390;-79
2022/05/17 04:51:51;;;;;;;1.13;1.13;;;;;;;;;;4965175;28;20240;-79
2022/05/17 04:54:17;;;;;;;2.40;1.38;;;;;;;;;;4931392;28;20633;-79
2022/05/17 04:56:47;;;;;;;1.25;1.20;;;;;;;;;;5002894;28;20335;-78
2022/05/17 04:59:12;;;;;;;2.92;2.30;;;;;;;;;;4966231;28;20225;-78
2022/05/17 05:01:38;;;;;;;1.90;1.80;;;;;;;;;;4983222;28;20229;-80
2022/05/17 05:04:09;;;;;;;1.38;1.38;;;;;;;;;;4979708;28;20248;-78
2022/05/17 05:06:34;;;;;;;1.33;1.10;;;;;;;;;;4960794;28;20706;-80
2022/05/17 05:09:00;;;;;;;0.95;0.95;;;;;;;;;;4954441;28;20244;-79
2022/05/17 05:11:28;;;;;;;1.27;1.00;;;;;;;;;;4979494;28;20300;-78
2022/05/17 05:13:54;;;;;;;2.22;1.48;;;;;;;;;;4951775;28;20225;-79
2022/05/17 05:16:19;;;;;;;0.93;0.90;;;;;;;;;;4976697;28;20267;-80
2022/05/17 05:18:47;;;;;;;6.93;2.25;;;;;;;;;;4978351;28;20304;-80
2022/05/17 05:21:14;;;;;;;0.75;0.75;;;;;;;;;;4996568;28;20217;-81
2022/05/17 05:23:45;;;;;;;1.35;1.25;;;;;;;;;;4945962;28;20237;-82
2022/05/17 05:26:12;;;;;;;0.52;0.52;;;;;;;;;;4966441;28;20836;-79
2022/05/17 05:28:40;;;;;;;2.50;2.15;;;;;;;;;;4982292;28;20272;-80
2022/05/17 05:31:05;;;;;;;1.60;1.50;;;;;;;;;;4952490;28;20221;-80
2022/05/17 05:33:34;;;;;;;1.75;1.45;;;;;;;;;;4996688;28;20244;-80
2022/05/17 05:36:01;;;;;;;2.72;1.60;;;;;;;;;;4961149;28;20261;-79
2022/05/17 05:38:27;;;;;;;0.68;0.68;;;;;;;;;;4938049;28;20209;-80
2022/05/17 05:40:53;;;;;;;1.85;1.70;;;;;;;;;;5002467;28;20244;-78
2022/05/17 05:43:19;;;;;;;0.65;0.65;;;;;;;;;;4944105;28;20225;-78
2022/05/17 05:45:45;;;;;;;1.73;1.63;;;;;;;;;;4974622;28;20787;-77
2022/05/17 05:48:10;;;;;;;0.88;0.88;;;;;;;;;;4962167;28;20225;-80
2022/05/17 05:50:36;;;;;;;0.70;0.70;;;;;;;;;;4997552;28;20225;-80
2022/05/17 05:53:07;;;;;;;0.52;0.52;;;;;;;;;;4964007;28;20614;-79
2022/05/17 05:55:35;;;;;;;1.35;1.30;;;;;;;;;;4972691;28;20237;-79
2022/05/17 05:58:02;;;;;;;1.30;0.82;;;;;;;;;;4966838;28;20671;-80
2022/05/17 06:00:28;;;;;;;8.30;1.73;;;;;;;;;;4973309;28;20232;-81
2022/05/17 06:02:54;;;;;;;0.70;0.70;;;;;;;;;;4964961;28;20310;-78
2022/05/17 06:05:22;;;;;;;0.57;0.57;;;;;;;;;;4979847;28;20252;-79
2022/05/17 06:07:48;;;;;;;2.60;2.40;;;;;;;;;;4978426;28;20267;-80
2022/05/17 06:10:41;;;;;;;0.80;0.80;;;;;;;;;;4975451;28;20257;-78
2022/05/17 06:13:10;;;;;;;0.85;0.85;;;;;;;;;;4974868;28;20290;-78
2022/05/17 06:19:27;;;;;;;38.33;30.25;;;;;;;;;;4985911;28;20228;-79
2022/05/17 06:21:53;;;;;;;34.65;30.23;;;;;;;;;;4991015;28;20226;-76
2022/05/17 06:24:19;;;;;;;42.47;31.55;;;;;;;;;;4993268;28;20319;-77
2022/05/17 06:26:44;;;;;;;36.20;29.05;;;;;;;;;;4977831;28;20313;-77
2022/05/17 06:30:00;;;;;;;36.72;29.10;;;;;;;;;;4983425;28;20285;-77
2022/05/17 06:32:25;;;;;;;36.45;30.02;;;;;;;;;;4979419;28;20912;-79
2022/05/17 06:34:53;;;;;;;35.00;29.58;;;;;;;;;;4951611;28;20661;-77
2022/05/17 06:37:19;;;;;;;35.83;29.33;;;;;;;;;;4981004;28;20308;-78
2022/05/17 06:39:45;;;;;;;35.65;28.80;;;;;;;;;;4997729;28;20196;-79
2022/05/17 06:42:11;;;;;;;35.60;27.98;;;;;;;;;;4979583;28;20324;-78
2022/05/17 06:44:39;;;;;;;36.25;28.92;;;;;;;;;;4990405;28;20297;-78
2022/05/17 06:47:05;;;;;;;36.42;29.02;;;;;;;;;;4945388;28;20236;-78
2022/05/17 06:49:35;;;;;;;33.17;29.50;;;;;;;;;;4955724;28;20221;-77
2022/05/17 06:52:01;;;;;;;32.78;29.20;;;;;;;;;;4987586;28;20225;-76
2022/05/17 06:54:29;;;;;;;33.50;28.10;;;;;;;;;;4992756;28;20232;-78
2022/05/17 06:56:54;;;;;;;34.75;28.98;;;;;;;;;;4960741;28;20297;-77
2022/05/17 06:59:20;;;;;;;36.85;30.73;;;;;;;;;;5003773;28;20248;-77
2022/05/17 07:01:49;;;;;;;34.75;29.35;;;;;;;;;;4969165;28;20229;-78
2022/05/17 07:04:15;;;;;;;40.92;31.13;;;;;;;;;;4991968;28;20244;-79
2022/05/17 07:06:40;;;;;;;34.05;30.45;;;;;;;;;;4977091;28;20265;-80
2022/05/17 07:09:06;;;;;;;36.60;28.70;;;;;;;;;;4968928;28;20341;-79
2022/05/17 07:14:21;;;;;;;30.15;26.45;;;;;;;;;;4979638;28;20241;-78
2022/05/17 07:16:47;;;;;;;29.80;26.58;;;;;;;;;;4964605;28;20238;-79
2022/05/17 07:19:14;;;;;;;33.97;27.65;;;;;;;;;;4941147;28;20244;-78
2022/05/17 07:21:42;;;;;;;30.10;27.13;;;;;;;;;;4952262;28;20214;-80
2022/05/17 07:24:08;;;;;;;32.80;27.63;;;;;;;;;;4957744;28;20229;-78
2022/05/17 07:26:41;;;;;;;31.52;27.58;;;;;;;;;;4984482;28;20217;-78
2022/05/17 07:29:07;;;;;;;35.00;27.33;;;;;;;;;;4987282;28;20237;-79
2022/05/17 07:31:35;;;;;;;32.33;27.40;;;;;;;;;;4962910;28;20217;-78
2022/05/17 07:34:01;;;;;;;34.05;26.38;;;;;;;;;;4985264;28;20236;-79
2022/05/17 07:36:35;;;;;;;35.75;27.30;;;;;;;;;;4969018;28;20232;-77
2022/05/17 07:39:01;;;;;;;31.30;26.40;;;;;;;;;;4975317;28;20277;-77
2022/05/17 07:41:26;;;;;;;30.10;26.73;;;;;;;;;;4955266;28;20225;-77
2022/05/17 07:43:56;;;;;;;30.10;25.65;;;;;;;;;;4955124;28;20257;-77
2022/05/17 07:46:30;;;;;;;29.95;26.30;;;;;;;;;;4961307;28;20225;-76
2022/05/17 07:48:56;;;;;;;31.48;26.10;;;;;;;;;;4958589;28;20244;-77
2022/05/17 07:51:24;;;;;;;28.33;24.98;;;;;;;;;;4941807;28;20305;-78
2022/05/17 07:53:50;;;;;;;26.88;23.98;;;;;;;;;;4999965;28;20253;-78
2022/05/17 07:56:18;;;;;;;30.15;23.88;;;;;;;;;;4969453;28;20214;-76
2022/05/17 07:58:46;;;;;;;29.92;24.73;;;;;;;;;;4954657;28;20809;-76
2022/05/17 08:01:12;;;;;;;27.48;24.65;;;;;;;;;;4977524;28;20293;-77
2022/05/17 08:03:37;;;;;;;27.45;24.50;;;;;;;;;;4980281;23;20232;-74
2022/05/17 08:06:08;;;;;;;25.70;22.77;;;;;;;;;;4962788;28;20231;-75
2022/05/17 08:08:36;;;;;;;27.33;22.92;;;;;;;;;;5001251;28;20227;-73
2022/05/17 08:11:01;;;;;;;27.35;22.58;;;;;;;;;;5004840;28;20246;-74
2022/05/17 08:13:27;;;;;;;24.92;22.05;;;;;;;;;;4989417;28;20220;-74
2022/05/17 08:15:53;;;;;;;29.80;23.10;;;;;;;;;;4973918;28;20229;-75
2022/05/17 08:18:18;;;;;;;27.45;22.27;;;;;;;;;;4988765;28;20266;-74
2022/05/17 08:20:44;;;;;;;24.92;22.33;;;;;;;;;;4979930;28;20207;-74
2022/05/17 08:23:10;;;;;;;24.23;21.50;;;;;;;;;;4979746;28;20319;-75
2022/05/17 08:28:22;;;;;;;22.63;19.98;;;;;;;;;;4997829;28;20220;-75
2022/05/17 08:30:48;;;;;;;22.20;20.00;;;;;;;;;;4980066;28;20227;-74
2022/05/17 08:33:16;;;;;;;25.15;20.35;;;;;;;;;;5006075;28;20598;-74
2022/05/17 08:35:44;;;;;;;26.23;19.98;;;;;;;;;;4986127;28;20224;-74
2022/05/17 08:38:10;;;;;;;24.48;21.00;;;;;;;;;;4995106;28;20232;-74
2022/05/17 08:41:19;;;;;;;23.85;21.30;;;;;;;;;;4994436;28;20212;-73
2022/05/17 08:44:16;;;;;;;26.33;21.80;;;;;;;;;;4914359;29;20227;-74
2022/05/17 08:47:01;;;;;;;25.17;21.48;;;;;;;;;;4984796;28;20251;-74
2022/05/17 08:49:29;;;;;;;24.25;20.88;;;;;;;;;;4986994;28;20617;-73
2022/05/17 08:52:01;;;;;;;23.13;20.70;;;;;;;;;;4969106;28;20267;-74
2022/05/17 08:54:39;;;;;;;26.83;21.48;;;;;;;;;;5018733;28;20232;-75
2022/05/17 08:57:19;;;;;;;25.50;22.45;;;;;;;;;;4986156;28;20289;-75
2022/05/17 08:59:46;;;;;;;26.95;21.52;;;;;;;;;;5005358;28;20217;-75
2022/05/17 09:02:16;;;;;;;21.67;19.48;;;;;;;;;;4973634;28;20213;-76
2022/05/17 09:05:23;;;;;;;23.23;20.70;;;;;;;;;;4997443;28;20220;-74
2022/05/17 09:08:11;;;;;;;25.52;21.58;;;;;;;;;;4986634;28;20244;-74
2022/05/17 09:10:38;;;;;;;25.73;23.13;;;;;;;;;;4995992;28;20304;-73
2022/05/17 09:13:15;;;;;;;25.70;21.65;;;;;;;;;;4979902;28;20233;-73
2022/05/17 09:15:42;;;;;;;25.05;21.75;;;;;;;;;;4981235;28;20606;-73
2022/05/17 09:18:10;;;;;;;23.92;20.90;;;;;;;;;;4978500;28;20709;-74
2022/05/17 09:20:39;;;;;;;22.58;20.20;;;;;;;;;;4989764;28;20299;-74
2022/05/17 09:23:04;;;;;;;22.10;19.73;;;;;;;;;;4960546;28;20305;-73
2022/05/17 09:25:54;;;;;;;23.10;19.70;;;;;;;;;;4970603;28;20368;-73
2022/05/17 09:28:23;;;;;;;28.35;21.95;;;;;;;;;;4977344;28;20725;-73
2022/05/17 09:31:06;;;;;;;24.23;20.38;;;;;;;;;;4988349;28;20710;-72
2022/05/17 09:33:32;;;;;;;23.73;19.83;;;;;;;;;;4991236;28;20220;-74
2022/05/17 09:36:02;;;;;;;23.92;19.40;;;;;;;;;;4988735;28;20224;-74
2022/05/17 09:38:31;;;;;;;24.20;19.55;;;;;;;;;;4970758;28;20228;-74
2022/05/17 09:40:57;;;;;;;23.58;19.58;;;;;;;;;;4987362;28;20212;-73
2022/05/17 09:43:49;;;;;;;21.88;19.67;;;;;;;;;;5000697;28;20228;-74
2022/05/17 09:46:34;;;;;;;23.02;19.92;;;;;;;;;;4989635;28;20236;-76
2022/05/17 09:54:48;;;;;;;21.67;19.30;;;;;;;;;;5009760;28;20251;-73
2022/05/17 09:57:29;;;;;;;22.30;18.70;;;;;;;;;;4990824;28;20294;-74
2022/05/17 10:00:16;;;;;;;22.30;18.92;;;;;;;;;;4992084;28;20766;-74
2022/05/17 10:02:53;;;;;;;20.80;18.33;;;;;;;;;;4993262;28;20761;-74
2022/05/17 10:05:30;;;;;;;22.50;20.10;;;;;;;;;;5000406;28;20690;-74
2022/05/17 10:08:02;;;;;;;20.20;18.13;;;;;;;;;;5003813;28;20433;-74
2022/05/17 10:10:29;;;;;;;17.77;16.00;;;;;;;;;;4977725;28;20220;-74
2022/05/17 10:12:57;;;;;;;18.23;15.77;;;;;;;;;;5028907;28;20232;-74
2022/05/17 10:15:26;;;;;;;17.20;15.38;;;;;;;;;;4989954;28;20752;-73
2022/05/17 10:17:56;;;;;;;17.70;15.85;;;;;;;;;;4994786;28;20316;-74
2022/05/17 10:20:51;;;;;;;18.75;16.90;;;;;;;;;;5009703;28;20238;-74
2022/05/17 10:23:32;;;;;;;17.50;15.75;;;;;;;;;;4983460;28;20243;-74
2022/05/17 10:26:05;;;;;;;17.30;14.82;;;;;;;;;;4980009;28;20227;-74
2022/05/17 10:28:43;;;;;;;18.90;16.15;;;;;;;;;;4979513;28;20263;-74
2022/05/17 10:31:13;;;;;;;19.60;15.60;;;;;;;;;;5025028;28;20227;-75
2022/05/17 10:34:05;;;;;;;16.13;14.35;;;;;;;;;;4995461;28;20224;-73
2022/05/17 10:36:46;;;;;;;18.38;13.88;;;;;;;;;;4981202;28;20264;-74
2022/05/17 10:39:21;;;;;;;13.45;12.05;;;;;;;;;;5008382;28;20224;-74
2022/05/17 10:41:50;;;;;;;15.50;12.50;;;;;;;;;;4981047;28;20603;-75
2022/05/17 10:44:16;;;;;;;12.18;10.32;;;;;;;;;;4995007;28;20231;-72
2022/05/17 10:46:48;;;;;;;13.27;10.05;;;;;;;;;;4978320;28;20231;-74
2022/05/17 10:49:46;;;;;;;14.18;10.98;;;;;;;;;;4994835;28;20440;-73
2022/05/17 10:52:33;;;;;;;16.10;11.45;;;;;;;;;;4987835;28;20224;-73
2022/05/17 10:55:05;;;;;;;14.43;11.25;;;;;;;;;;4996987;28;20226;-73
2022/05/17 10:57:43;;;;;;;15.38;12.50;;;;;;;;;;5009148;28;20228;-73
2022/05/17 11:00:18;;;;;;;13.95;12.52;;;;;;;;;;5012331;28;20698;-74
2022/05/17 11:03:28;;;;;;;12.88;11.57;;;;;;;;;;4995811;28;20219;-73
2022/05/17 11:06:11;;;;;;;14.65;11.95;;;;;;;;;;4984694;28;20231;-73
2022/05/17 11:09:01;;;;;;;13.68;11.90;;;;;;;;;;5009825;28;20228;-73
2022/05/17 11:11:40;;;;;;;13.65;11.85;;;;;;;;;;4978854;28;20220;-73
2022/05/17 11:14:10;;;;;;;18.42;12.02;;;;;;;;;;5023673;28;20232;-74
2022/05/17 11:16:44;;;;;;;15.32;12.93;;;;;;;;;;5004702;28;20674;-74
2022/05/17 11:19:41;;;;;;;13.73;12.10;;;;;;;;;;5018632;28;20228;-74
2022/05/17 11:22:24;;;;;;;16.70;12.27;;;;;;;;;;5018016;28;20702;-73
2022/05/17 11:24:59;;;;;;;13.93;10.57;;;;;;;;;;4991278;28;20316;-73
2022/05/17 11:27:49;;;;;;;12.30;10.18;;;;;;;;;;5019494;28;20271;-73
2022/05/17 11:30:17;;;;;;;10.85;8.60;;;;;;;;;;4997115;28;20577;-73
2022/05/17 11:33:06;;;;;;;14.48;9.35;;;;;;;;;;4988840;28;20229;-74
2022/05/17 11:35:33;;;;;;;13.68;9.30;;;;;;;;;;4977141;28;20223;-74
2022/05/17 11:37:59;;;;;;;14.18;9.82;;;;;;;;;;5012183;28;20224;-74
2022/05/17 11:40:42;;;;;;;11.80;8.65;;;;;;;;;;4978462;28;20229;-74
2022/05/17 11:45:56;;;;;;;8.52;6.60;;;;;;;;;;4985229;28;20599;-74
2022/05/17 11:48:46;;;;;;;9.73;6.75;;;;;;;;;;4977637;28;20713;-75
2022/05/17 11:51:12;;;;;;;11.30;8.18;;;;;;;;;;4995858;28;20216;-74
2022/05/17 11:53:55;;;;;;;11.00;9.27;;;;;;;;;;4996170;28;20215;-74
2022/05/17 11:56:28;;;;;;;14.07;10.90;;;;;;;;;;4993455;28;20227;-74
2022/05/17 11:58:55;;;;;;;13.25;11.05;;;;;;;;;;5010244;28;20232;-73
2022/05/17 12:01:26;;;;;;;14.07;11.25;;;;;;;;;;4973315;28;20240;-73
2022/05/17 12:03:56;;;;;;;14.95;13.20;;;;;;;;;;5019633;28;20233;-72
2022/05/17 12:06:43;;;;;;;16.10;11.38;;;;;;;;;;5001079;28;20727;-73
2022/05/17 12:09:11;;;;;;;12.90;11.40;;;;;;;;;;4978284;28;20366;-74
2022/05/17 12:11:58;;;;;;;12.50;10.55;;;;;;;;;;5019315;28;20243;-73
2022/05/17 12:14:39;;;;;;;15.23;11.23;;;;;;;;;;5009369;28;20246;-75
2022/05/17 12:17:15;;;;;;;15.52;14.02;;;;;;;;;;5004327;28;20769;-73
2022/05/17 12:19:56;;;;;;;15.63;14.07;;;;;;;;;;4986474;28;20228;-73
2022/05/17 12:22:25;;;;;;;17.45;15.20;;;;;;;;;;5019042;28;20258;-74
2022/05/17 12:25:10;;;;;;;16.05;14.10;;;;;;;;;;4989355;28;20216;-75
2022/05/17 12:27:41;;;;;;;15.00;13.52;;;;;;;;;;5000115;28;20248;-73
2022/05/17 12:33:15;;;;;;;13.32;11.85;;;;;;;;;;5021241;28;20229;-74
2022/05/17 12:35:41;;;;;;;13.75;11.77;;;;;;;;;;4976888;28;20753;-74
2022/05/17 12:43:02;;;;;;;13.38;11.15;;;;;;;;;;4971226;28;20319;-72
2022/05/17 12:43:56;;;;;;;13.82;11.07;;;;;;;;;;4928376;28;20317;-74
2022/05/17 12:46:30;;;;;;;14.35;11.80;;;;;;;;;;4985211;28;20231;-73
2022/05/17 12:48:56;;;;;;;15.85;11.75;;;;;;;;;;4972376;28;20237;-73
2022/05/17 12:51:22;;;;;;;15.77;12.07;;;;;;;;;;4977757;28;20764;-73
2022/05/17 12:53:53;;;;;;;13.70;12.30;;;;;;;;;;4986105;28;20644;-75
2022/05/17 12:56:24;;;;;;;14.98;11.43;;;;;;;;;;4989178;28;20227;-77
2022/05/17 12:58:57;;;;;;;16.70;12.30;;;;;;;;;;5023292;28;20263;-74
2022/05/17 13:01:30;;;;;;;13.10;11.32;;;;;;;;;;5001859;28;20232;-74
2022/05/17 13:03:58;;;;;;;12.95;11.07;;;;;;;;;;4976723;28;20229;-76
2022/05/17 13:06:42;;;;;;;12.90;10.43;;;;;;;;;;4977973;28;20311;-74
2022/05/17 13:09:17;;;;;;;12.77;9.60;;;;;;;;;;4988765;28;20224;-73
2022/05/17 13:11:45;;;;;;;10.18;9.02;;;;;;;;;;4975910;28;20596;-76
2022/05/17 13:14:27;;;;;;;11.73;8.93;;;;;;;;;;5003791;28;20216;-76
2022/05/17 13:17:06;;;;;;;11.98;8.70;;;;;;;;;;5004123;28;20224;-77
2022/05/17 13:19:33;;;;;;;12.90;9.93;;;;;;;;;;5005115;28;20224;-75
2022/05/17 13:21:59;;;;;;;10.57;7.80;;;;;;;;;;5008836;28;20231;-75
2022/05/17 13:24:27;;;;;;;9.13;8.00;;;;;;;;;;4976486;28;20224;-76
2022/05/17 13:26:57;;;;;;;13.57;9.73;;;;;;;;;;5002853;28;20273;-76
2022/05/17 13:29:40;;;;;;;13.35;8.73;;;;;;;;;;4997392;28;20841;-74
2022/05/17 13:32:09;;;;;;;10.40;8.30;;;;;;;;;;4995672;28;20661;-73
2022/05/17 13:34:39;;;;;;;15.60;10.32;;;;;;;;;;5008706;28;20701;-77
2022/05/17 13:37:19;;;;;;;11.48;8.00;;;;;;;;;;5007958;28;20615;-75
2022/05/17 13:39:46;;;;;;;10.85;9.18;;;;;;;;;;4980808;28;20260;-76
2022/05/17 13:42:23;;;;;;;13.75;9.43;;;;;;;;;;5014072;28;20323;-78
2022/05/17 13:45:00;;;;;;;11.25;7.75;;;;;;;;;;4983275;28;20283;-74
2022/05/17 13:47:30;;;;;;;9.73;7.35;;;;;;;;;;4980421;28;20697;-74
2022/05/17 13:49:58;;;;;;;11.52;8.57;;;;;;;;;;5004064;28;20312;-73
2022/05/17 13:52:30;;;;;;;12.13;8.95;;;;;;;;;;4978789;28;20228;-73
2022/05/17 13:55:02;;;;;;;10.90;8.40;;;;;;;;;;5006747;28;20225;-72
2022/05/17 13:57:32;;;;;;;10.90;8.60;;;;;;;;;;5001476;28;20225;-75
2022/05/17 14:00:18;;;;;;;11.25;7.72;;;;;;;;;;5005917;28;20603;-75
2022/05/17 14:02:48;;;;;;;12.65;9.02;;;;;;;;;;4994721;28;20223;-72
2022/05/17 14:05:23;;;;;;;8.88;7.82;;;;;;;;;;5023006;28;20216;-73
2022/05/17 14:13:34;;;;;;;9.82;7.57;;;;;;;;;;5010885;28;20241;-73
2022/05/17 14:16:02;;;;;;;9.75;7.70;;;;;;;;;;5008304;28;20766;-75
2022/05/17 14:18:40;;;;;;;9.77;7.20;;;;;;;;;;5005527;28;20266;-76
2022/05/17 14:21:12;;;;;;;9.60;8.35;;;;;;;;;;4989413;28;20263;-76
2022/05/17 14:23:42;;;;;;;13.10;8.02;;;;;;;;;;4966833;28;20215;-76
2022/05/17 14:26:08;;;;;;;10.00;7.63;;;;;;;;;;4989425;28;21587;-73
2022/05/17 14:28:36;;;;;;;10.80;8.10;;;;;;;;;;4978959;28;20255;-75
2022/05/17 14:31:08;;;;;;;11.57;8.48;;;;;;;;;;4995692;28;20223;-74
2022/05/17 14:33:34;;;;;;;10.30;8.50;;;;;;;;;;4993023;28;20693;-74
2022/05/17 14:36:05;;;;;;;9.02;7.95;;;;;;;;;;4996079;28;20212;-74
2022/05/17 14:38:32;;;;;;;10.25;9.25;;;;;;;;;;5005435;28;20302;-73
2022/05/17 14:41:00;;;;;;;11.70;9.18;;;;;;;;;;4992940;28;20256;-74
2022/05/17 14:43:26;;;;;;;9.85;8.85;;;;;;;;;;4993186;28;20728;-75
2022/05/17 14:45:56;;;;;;;11.20;9.30;;;;;;;;;;5008317;28;20220;-73
2022/05/17 14:48:24;;;;;;;11.23;9.77;;;;;;;;;;4993114;28;20212;-72
2022/05/17 14:50:50;;;;;;;10.45;9.30;;;;;;;;;;4989465;28;20374;-71
2022/05/17 14:53:18;;;;;;;11.40;9.40;;;;;;;;;;5007217;28;20220;-72
2022/05/17 14:55:48;;;;;;;10.57;8.40;;;;;;;;;;4993908;28;20217;-72
2022/05/17 14:58:17;;;;;;;9.85;8.35;;;;;;;;;;4992817;28;20221;-72
2022/05/17 15:00:42;;;;;;;9.73;8.57;;;;;;;;;;4978774;28;20224;-73
2022/05/17 15:03:18;;;;;;;9.07;6.90;;;;;;;;;;5004413;28;20225;-73
2022/05/17 15:05:48;;;;;;;9.40;6.75;;;;;;;;;;4988456;28;20216;-73
2022/05/17 15:08:14;;;;;;;9.40;6.47;;;;;;;;;;4989656;28;20235;-72
2022/05/17 15:10:39;;;;;;;12.70;6.93;;;;;;;;;;4996635;28;20220;-72
2022/05/17 15:13:05;;;;;;;10.10;6.43;;;;;;;;;;4991422;28;20330;-73
2022/05/17 15:15:33;;;;;;;8.75;6.07;;;;;;;;;;4979034;28;20212;-74
2022/05/17 15:18:08;;;;;;;8.35;7.03;;;;;;;;;;4995592;28;20316;-73
2022/05/17 15:20:36;;;;;;;7.85;6.57;;;;;;;;;;4988942;28;20238;-73
2022/05/17 15:23:02;;;;;;;8.57;6.38;;;;;;;;;;4987718;28;20323;-73